Accueil
METAR-TAF:

METAR-TAF

Aéroports :

Aéroport de Bologne-Borgo Panigale

Bologne, Italie

latitude: 44-32N, longitude: 011-18E, altitude: 36 m

Observation

Le bulletin a été fait il y a 12 minutes, à 07:20 UTC
Vent 7 kt de ouest/nord-ouest
Température 1°C
Humidité 86%
Pression 1016 hPa
Visibilité 10 km ou plus
Nuages fragmentés à une hauteur de 3000 ft

METAR: LIPE 140720Z 29007KT 9999 BKN030 01/M01 Q1016

Heure: 08:32 (07:32 UTC)

Prévision

Le bulletin a été fait il y a 2 heures et 32 minutes, à 05:00 UTC
Prévision valable du 14 à 06 UTC au 15 à 06 UTC
Vent 6 kt de ouest/nord-ouest
Visibilité 10 km ou plus
Nuages épars à une hauteur de 1000 ft
Nuages fragmentés à une hauteur de 2000 ft
Probabilité 30% :
Temporairement
du 14 à 06 UTC au 14 à 15 UTC
Visibilité: 1200 m
neige

TAF: LIPE 140500Z 1406/1506 30006KT 9999 SCT010 BKN020 PROB30 TEMPO 1406/1415 1200 SN

Observations et prévisions météorologiques de plus de 4000 aéroports (messages METAR et TAF).

Les stations disponibles sont représentées par des disques jaunes et rouges sur la carte.

Passer la souris dessus pour voir le nom de la station.

Cliquer dessus pour voir les observations et prévisions météorologiques.

Pour changer de carte: cliquez sur les boutons verts avec une croix noire pour zoomer, sur le bouton vert avec un tiret pour effectuer un zoom arrière, ou sur les flèches vertes pour les cartes adjacentes.


METAR-TAF: